createdAt,value
2018-10-18T00:01:21.989Z,19.57
2018-10-18T00:03:50.528Z,17.17
2018-10-18T00:06:19.465Z,19.40
2018-10-18T00:08:48.090Z,21.27
2018-10-18T00:11:16.620Z,21.27
2018-10-18T00:13:45.175Z,21.27
2018-10-18T00:16:13.705Z,19.63
2018-10-18T00:18:42.329Z,20.63
2018-10-18T00:21:10.984Z,19.37
2018-10-18T00:23:39.565Z,19.33
2018-10-18T00:26:08.121Z,20.07
2018-10-18T00:28:36.721Z,23.10
2018-10-18T00:31:05.353Z,21.17
2018-10-18T00:33:33.948Z,20.20
2018-10-18T00:36:02.528Z,22.03
2018-10-18T00:38:31.377Z,23.50
2018-10-18T00:40:59.972Z,20.40
2018-10-18T00:43:28.533Z,22.00
2018-10-18T00:45:57.128Z,21.63
2018-10-18T00:48:25.701Z,20.83
2018-10-18T00:50:54.285Z,18.87
2018-10-18T00:53:22.853Z,20.00
2018-10-18T00:55:51.464Z,18.70
2018-10-18T00:58:20.019Z,18.23
2018-10-18T01:00:48.881Z,21.33
2018-10-18T01:03:17.431Z,19.40
2018-10-18T01:05:46.021Z,17.03
2018-10-18T01:08:14.799Z,19.43
2018-10-18T01:10:43.324Z,25.17
2018-10-18T01:13:11.885Z,20.53
2018-10-18T01:15:40.498Z,20.30
2018-10-18T01:18:09.394Z,19.93
2018-10-18T01:20:37.925Z,20.53
2018-10-18T01:23:07.236Z,20.23
2018-10-18T01:25:35.789Z,18.83
2018-10-18T01:28:04.655Z,19.47
2018-10-18T01:30:33.205Z,19.40
2018-10-18T01:33:01.733Z,22.20
2018-10-18T01:35:30.341Z,20.40
2018-10-18T01:37:58.877Z,19.57
2018-10-18T01:40:27.453Z,18.07
2018-10-18T01:42:55.974Z,18.33
2018-10-18T01:45:24.552Z,18.83
2018-10-18T01:47:53.183Z,18.07
2018-10-18T01:50:21.717Z,18.90
2018-10-18T01:52:50.254Z,16.20
2018-10-18T01:55:18.825Z,17.20
2018-10-18T01:57:47.678Z,14.50
2018-10-18T02:00:16.284Z,16.20
2018-10-18T02:02:44.800Z,17.50
2018-10-18T02:05:13.380Z,15.87
2018-10-18T02:07:41.944Z,17.37
2018-10-18T02:10:10.501Z,17.30
2018-10-18T02:12:39.053Z,16.30
2018-10-18T02:15:09.858Z,17.20
2018-10-18T02:17:38.412Z,16.93
2018-10-18T02:20:07.620Z,16.93
2018-10-18T02:22:36.275Z,17.60
2018-10-18T02:25:05.447Z,19.10
2018-10-18T02:27:34.264Z,17.73
2018-10-18T02:30:02.863Z,17.33
2018-10-18T02:32:31.921Z,16.70
2018-10-18T02:35:00.472Z,16.30
2018-10-18T02:37:29.068Z,18.50
2018-10-18T02:39:57.623Z,17.97
2018-10-18T02:42:26.215Z,16.00
2018-10-18T02:44:54.773Z,16.30
2018-10-18T02:47:23.368Z,16.97
2018-10-18T02:49:51.918Z,21.00
2018-10-18T02:52:20.509Z,18.20
2018-10-18T02:54:49.056Z,16.70
2018-10-18T02:57:17.629Z,16.17
2018-10-18T02:59:46.174Z,16.70
2018-10-18T03:02:14.772Z,17.23
2018-10-18T03:04:43.313Z,18.17
2018-10-18T03:07:11.921Z,18.37
2018-10-18T03:09:40.469Z,17.13
2018-10-18T03:12:09.089Z,16.97
2018-10-18T03:14:37.925Z,18.03
2018-10-18T03:17:06.666Z,17.17
2018-10-18T03:19:35.242Z,18.43
2018-10-18T03:22:03.829Z,15.80
2018-10-18T03:24:32.617Z,17.70
2018-10-18T03:27:01.145Z,16.77
2018-10-18T03:29:29.701Z,18.77
2018-10-18T03:31:58.241Z,15.83
2018-10-18T03:34:26.810Z,15.67
2018-10-18T03:36:55.349Z,17.90
2018-10-18T03:39:23.916Z,17.97
2018-10-18T03:41:52.470Z,17.00
2018-10-18T03:44:21.026Z,16.87
2018-10-18T03:46:49.569Z,17.33
2018-10-18T03:49:18.138Z,15.93
2018-10-18T03:51:46.753Z,17.43
2018-10-18T03:54:15.338Z,18.47
2018-10-18T03:56:43.858Z,17.20
2018-10-18T03:59:12.416Z,16.40
2018-10-18T04:01:40.953Z,16.87
2018-10-18T04:04:09.573Z,18.33
2018-10-18T04:06:38.125Z,16.00
2018-10-18T04:09:08.576Z,16.20
2018-10-18T04:11:37.125Z,18.90
2018-10-18T04:14:05.943Z,19.27
2018-10-18T04:16:34.489Z,18.23
2018-10-18T04:19:03.093Z,18.40
2018-10-18T04:21:31.904Z,16.23
2018-10-18T04:24:00.468Z,18.77
2018-10-18T04:26:29.008Z,18.37
2018-10-18T04:28:57.568Z,18.97
2018-10-18T04:31:26.164Z,16.53
2018-10-18T04:33:54.744Z,17.93
2018-10-18T04:36:23.816Z,19.17
2018-10-18T04:38:52.829Z,17.33
2018-10-18T04:41:21.859Z,17.43
2018-10-18T04:43:51.104Z,18.27
2018-10-18T04:46:20.133Z,17.03
2018-10-18T04:48:50.894Z,19.70
2018-10-18T04:51:19.487Z,16.13
2018-10-18T04:53:48.044Z,16.40
2018-10-18T04:56:16.697Z,18.17
2018-10-18T04:58:45.252Z,16.10
2018-10-18T05:01:13.931Z,16.80
2018-10-18T05:03:45.916Z,17.43
2018-10-18T05:06:14.617Z,17.27
2018-10-18T05:08:43.578Z,17.40
2018-10-18T05:11:12.186Z,17.40
2018-10-18T05:13:40.897Z,17.27
2018-10-18T05:16:09.661Z,18.93
2018-10-18T05:18:38.905Z,18.13
2018-10-18T05:21:07.852Z,16.40
2018-10-18T05:23:36.563Z,18.97
2018-10-18T05:26:06.244Z,22.87
2018-10-18T05:28:34.860Z,22.50
2018-10-18T05:31:03.481Z,17.73
2018-10-18T05:33:32.253Z,16.30
2018-10-18T05:36:00.925Z,20.07
2018-10-18T05:38:29.738Z,17.40
2018-10-18T05:40:58.320Z,18.37
2018-10-18T05:43:27.317Z,16.87
2018-10-18T05:45:56.477Z,18.23
2018-10-18T05:48:25.353Z,17.67
2018-10-18T05:50:53.973Z,21.50
2018-10-18T05:53:22.596Z,18.87
2018-10-18T05:55:51.133Z,18.00
2018-10-18T05:58:19.668Z,16.07
2018-10-18T06:00:48.257Z,18.97
2018-10-18T06:03:16.912Z,18.17
2018-10-18T06:05:45.816Z,18.10
2018-10-18T06:08:14.458Z,19.07
2018-10-18T06:10:54.229Z,17.77
2018-10-18T06:13:22.782Z,21.40
2018-10-18T06:15:51.372Z,21.57
2018-10-18T06:18:20.029Z,15.97
2018-10-18T06:20:48.617Z,19.67
2018-10-18T06:23:17.204Z,19.67
2018-10-18T06:25:45.776Z,17.27
2018-10-18T06:28:14.331Z,19.13
2018-10-18T06:30:42.911Z,18.20
2018-10-18T06:33:11.531Z,19.60
2018-10-18T06:35:40.115Z,21.40
2018-10-18T06:38:08.676Z,17.87
2018-10-18T06:40:37.253Z,21.80
2018-10-18T06:43:05.909Z,19.97
2018-10-18T06:45:34.508Z,17.70
2018-10-18T06:48:03.112Z,20.00
2018-10-18T06:50:31.693Z,26.47
2018-10-18T06:53:00.245Z,27.37
2018-10-18T06:55:28.827Z,25.47
2018-10-18T06:57:57.395Z,20.40
2018-10-18T07:00:26.297Z,20.23
2018-10-18T07:02:54.937Z,25.83
2018-10-18T07:05:23.704Z,27.00
2018-10-18T07:07:52.457Z,28.17
2018-10-18T07:10:21.291Z,31.50
2018-10-18T07:12:50.100Z,24.43
2018-10-18T07:15:18.762Z,27.33
2018-10-18T07:17:47.610Z,25.20
2018-10-18T07:20:16.357Z,24.97
2018-10-18T07:22:45.080Z,32.47
2018-10-18T07:25:15.136Z,32.97
2018-10-18T07:27:44.165Z,43.67
2018-10-18T07:30:14.257Z,44.50
2018-10-18T07:32:43.172Z,47.17
2018-10-18T07:35:13.088Z,53.13
2018-10-18T07:37:41.807Z,63.43
2018-10-18T07:40:13.478Z,47.63
2018-10-18T07:42:42.208Z,53.87
2018-10-18T07:45:12.075Z,57.73
2018-10-18T07:47:40.951Z,50.77
2018-10-18T07:50:10.222Z,47.87
2018-10-18T07:52:38.948Z,43.37
2018-10-18T07:55:08.417Z,47.03
2018-10-18T07:57:37.209Z,54.07
2018-10-18T08:00:11.363Z,46.33
2018-10-18T08:02:40.241Z,50.80
2018-10-18T08:05:09.395Z,48.90
2018-10-18T08:07:38.348Z,48.73
2018-10-18T08:10:10.702Z,50.20
2018-10-18T08:12:39.506Z,47.70
2018-10-18T08:15:09.364Z,51.57
2018-10-18T08:17:37.961Z,57.10
2018-10-18T08:20:07.376Z,55.77
2018-10-18T08:22:36.039Z,55.23
2018-10-18T08:25:04.946Z,53.47
2018-10-18T08:27:33.772Z,60.53
2018-10-18T08:30:02.596Z,69.53
2018-10-18T08:32:31.181Z,60.33
2018-10-18T08:34:59.732Z,65.43
2018-10-18T08:37:28.346Z,61.93
2018-10-18T08:39:57.237Z,55.27
2018-10-18T08:42:25.865Z,55.93
2018-10-18T08:44:54.608Z,79.13
2018-10-18T08:47:23.212Z,88.00
2018-10-18T08:49:51.853Z,74.87
2018-10-18T08:52:20.437Z,83.63
2018-10-18T08:54:49.021Z,70.77
2018-10-18T08:57:17.657Z,81.13
2018-10-18T08:59:46.201Z,77.33
2018-10-18T09:02:14.776Z,87.37
2018-10-18T09:04:43.348Z,96.93
2018-10-18T09:07:11.979Z,67.60
2018-10-18T09:09:40.513Z,67.53
2018-10-18T09:12:09.112Z,59.77
2018-10-18T09:14:37.704Z,56.63
2018-10-18T09:17:06.329Z,54.00
2018-10-18T09:19:35.029Z,52.23
2018-10-18T09:22:03.619Z,50.27
2018-10-18T09:24:32.148Z,51.10
2018-10-18T09:27:00.729Z,47.60
2018-10-18T09:29:29.313Z,48.57
2018-10-18T09:31:57.920Z,48.40
2018-10-18T09:34:26.489Z,45.17
2018-10-18T09:36:55.082Z,49.37
2018-10-18T09:39:23.637Z,51.43
2018-10-18T09:41:52.205Z,46.50
2018-10-18T09:44:20.816Z,43.57
2018-10-18T09:46:49.349Z,45.47
2018-10-18T09:49:17.970Z,44.60
2018-10-18T09:51:46.460Z,43.87
2018-10-18T09:54:15.264Z,45.77
2018-10-18T09:56:44.142Z,43.57
2018-10-18T09:59:12.901Z,46.43
2018-10-18T10:01:46.824Z,39.47
2018-10-18T10:04:15.600Z,72.00
2018-10-18T10:06:44.389Z,70.80
2018-10-18T10:09:13.025Z,45.87
2018-10-18T10:11:42.205Z,53.13
2018-10-18T10:14:10.858Z,47.20
2018-10-18T10:16:39.585Z,45.40
2018-10-18T10:19:08.357Z,41.70
2018-10-18T10:21:37.003Z,43.63
2018-10-18T10:24:05.874Z,42.30
2018-10-18T10:26:34.529Z,41.23
2018-10-18T10:29:03.271Z,43.37
2018-10-18T10:31:31.946Z,40.97
2018-10-18T10:34:00.532Z,41.30
2018-10-18T10:36:29.205Z,39.40
2018-10-18T10:38:57.960Z,34.87
2018-10-18T10:41:26.606Z,38.70
2018-10-18T10:43:55.311Z,33.73
2018-10-18T10:46:24.052Z,31.87
2018-10-18T10:48:52.779Z,32.10
2018-10-18T10:51:21.428Z,28.40
2018-10-18T10:53:50.144Z,30.07
2018-10-18T10:56:18.820Z,28.30
2018-10-18T10:58:47.601Z,30.87
2018-10-18T11:01:23.911Z,26.57
2018-10-18T11:03:54.015Z,29.10
2018-10-18T11:06:23.085Z,28.97
2018-10-18T11:08:51.825Z,28.03
2018-10-18T11:11:21.249Z,26.23
2018-10-18T11:13:50.249Z,30.20
2018-10-18T11:16:18.861Z,31.83
2018-10-18T11:18:47.738Z,27.17
2018-10-18T11:21:17.551Z,25.60
2018-10-18T11:23:46.317Z,27.60
2018-10-18T11:26:15.277Z,23.63
2018-10-18T11:28:43.964Z,23.53
2018-10-18T11:31:13.233Z,28.27
2018-10-18T11:33:41.972Z,23.90
2018-10-18T11:36:11.147Z,27.27
2018-10-18T11:38:39.960Z,28.83
2018-10-18T11:41:08.724Z,29.53
2018-10-18T11:43:41.674Z,26.20
2018-10-18T11:46:10.432Z,24.83
2018-10-18T11:48:39.104Z,25.67
2018-10-18T11:51:07.913Z,23.97
2018-10-18T11:53:42.708Z,27.80
2018-10-18T11:56:11.787Z,24.63
2018-10-18T11:58:44.017Z,23.00
2018-10-18T12:01:15.713Z,24.50
2018-10-18T12:03:44.372Z,24.53
2018-10-18T12:06:17.455Z,21.57
2018-10-18T12:08:47.952Z,24.50
2018-10-18T12:11:16.800Z,23.37
2018-10-18T12:13:49.361Z,24.60
2018-10-18T12:16:21.197Z,25.70
2018-10-18T12:18:52.282Z,25.43
2018-10-18T12:21:27.165Z,24.50
2018-10-18T12:23:55.862Z,24.20
2018-10-18T12:26:31.642Z,21.90
2018-10-18T12:29:01.712Z,22.70
2018-10-18T12:31:30.293Z,23.77
2018-10-18T12:33:59.642Z,24.27
2018-10-18T12:36:29.411Z,23.57
2018-10-18T12:38:58.354Z,21.53
2018-10-18T12:41:31.903Z,20.03
2018-10-18T12:44:04.616Z,18.87
2018-10-18T12:46:36.449Z,19.50
2018-10-18T12:49:11.103Z,20.27
2018-10-18T12:51:46.958Z,21.00
2018-10-18T12:54:17.083Z,17.23
2018-10-18T12:56:47.404Z,17.93
2018-10-18T12:59:17.192Z,17.33
2018-10-18T13:01:45.912Z,16.70
2018-10-18T13:04:18.900Z,20.80
2018-10-18T13:06:52.306Z,16.73
2018-10-18T13:09:24.164Z,15.33
2018-10-18T13:11:58.703Z,16.77
2018-10-18T13:14:32.172Z,16.50
2018-10-18T13:17:03.097Z,17.53
2018-10-18T13:19:33.511Z,17.13
2018-10-18T13:22:02.825Z,18.13
2018-10-18T13:24:38.322Z,17.57
2018-10-18T13:27:09.918Z,17.90
2018-10-18T13:29:39.727Z,15.93
2018-10-18T13:32:14.235Z,17.20
2018-10-18T13:34:45.672Z,18.77
2018-10-18T13:37:18.293Z,16.77
2018-10-18T13:39:50.616Z,19.27
2018-10-18T13:42:22.706Z,19.17
2018-10-18T13:44:51.321Z,21.47
2018-10-18T13:47:24.883Z,19.90
2018-10-18T13:49:56.223Z,24.13
2018-10-18T13:52:32.654Z,24.50
2018-10-18T13:55:02.515Z,21.67
2018-10-18T13:57:36.842Z,20.60
2018-10-18T14:00:27.800Z,22.17
2018-10-18T14:03:00.165Z,23.63
2018-10-18T14:05:40.808Z,25.73
2018-10-18T14:08:15.844Z,24.80
2018-10-18T14:10:50.388Z,22.70
2018-10-18T14:13:21.781Z,21.83
2018-10-18T14:15:52.596Z,21.10
2018-10-18T14:18:31.866Z,24.53
2018-10-18T14:23:40.063Z,21.37
2018-10-18T14:26:15.223Z,23.00
2018-10-18T14:28:48.479Z,21.97
2018-10-18T14:31:23.585Z,20.60
2018-10-18T14:33:57.915Z,20.63
2018-10-18T14:36:37.224Z,21.17
2018-10-18T14:39:20.331Z,33.97
2018-10-18T14:41:55.115Z,36.90
2018-10-18T14:44:29.908Z,33.10
2018-10-18T14:47:11.271Z,34.20
2018-10-18T14:49:44.193Z,35.50
2018-10-18T14:52:13.638Z,34.20
2018-10-18T14:54:42.326Z,40.67
2018-10-18T14:57:14.727Z,38.47
2018-10-18T14:59:43.598Z,39.07
2018-10-18T15:02:15.245Z,46.83
2018-10-18T15:04:46.573Z,50.20
2018-10-18T15:07:15.808Z,46.80
2018-10-18T15:09:44.852Z,51.03
2018-10-18T15:12:13.820Z,53.47
2018-10-18T15:14:42.802Z,48.50
2018-10-18T15:17:11.920Z,50.97
2018-10-18T15:19:41.129Z,57.73
2018-10-18T15:22:10.710Z,55.17
2018-10-18T15:24:39.853Z,58.23
2018-10-18T15:27:16.256Z,53.17
2018-10-18T15:29:50.618Z,54.43
2018-10-18T15:32:19.375Z,54.90
2018-10-18T15:34:50.447Z,58.43
2018-10-18T15:37:19.117Z,59.90
2018-10-18T15:39:49.413Z,60.57
2018-10-18T15:42:18.141Z,55.07
2018-10-18T15:44:47.028Z,53.80
2018-10-18T15:47:19.221Z,55.90
2018-10-18T15:49:50.771Z,57.13
2018-10-18T15:52:23.590Z,52.63
2018-10-18T15:55:00.171Z,61.57
2018-10-18T15:57:34.990Z,57.50
2018-10-18T16:00:11.364Z,64.07
2018-10-18T16:02:46.916Z,60.03
2018-10-18T16:05:23.397Z,57.53
2018-10-18T16:08:00.015Z,59.40
2018-10-18T16:10:35.821Z,58.03
2018-10-18T16:13:11.900Z,58.80
2018-10-18T16:15:46.676Z,63.80
2018-10-18T16:18:23.228Z,61.03
2018-10-18T16:21:01.032Z,69.47
2018-10-18T16:23:38.751Z,65.30
2018-10-18T16:26:25.005Z,64.00
2018-10-18T16:29:14.441Z,67.43
2018-10-18T16:31:46.172Z,63.73
2018-10-18T16:34:14.892Z,62.90
2018-10-18T16:36:43.894Z,65.30
2018-10-18T16:39:13.848Z,66.53
2018-10-18T16:41:42.808Z,66.53
2018-10-18T16:44:11.539Z,69.30
2018-10-18T16:46:40.205Z,68.37
2018-10-18T16:49:08.957Z,67.83
2018-10-18T16:51:37.853Z,66.57
2018-10-18T16:54:10.004Z,61.67
2018-10-18T16:56:40.285Z,64.57
2018-10-18T16:59:08.893Z,117.53
2018-10-18T17:01:41.184Z,70.10
2018-10-18T17:04:11.647Z,66.60
2018-10-18T17:06:41.636Z,69.70
2018-10-18T17:09:15.338Z,69.63
2018-10-18T17:11:46.749Z,68.53
2018-10-18T17:14:18.904Z,71.17
2018-10-18T17:16:54.306Z,67.93
2018-10-18T17:22:04.436Z,73.03
2018-10-18T17:24:40.597Z,67.53
2018-10-18T17:27:13.237Z,69.40
2018-10-18T17:29:47.502Z,67.97
2018-10-18T17:32:17.095Z,70.07
2018-10-18T17:34:45.989Z,73.40
2018-10-18T17:37:14.538Z,72.00
2018-10-18T17:39:43.121Z,72.03
2018-10-18T17:42:11.764Z,74.23
2018-10-18T17:44:40.273Z,71.80
2018-10-18T17:47:08.867Z,78.07
2018-10-18T17:49:37.425Z,72.33
2018-10-18T17:52:06.260Z,66.50
2018-10-18T17:54:34.773Z,69.90
2018-10-18T17:57:03.340Z,68.87
2018-10-18T17:59:33.299Z,70.83
2018-10-18T18:02:01.876Z,73.37
2018-10-18T18:04:39.009Z,70.90
2018-10-18T18:07:12.284Z,75.43
2018-10-18T18:09:40.890Z,74.00
2018-10-18T18:12:09.493Z,68.80
2018-10-18T18:14:42.915Z,74.30
2018-10-18T18:17:12.556Z,76.73
2018-10-18T18:19:44.128Z,72.57
2018-10-18T18:22:22.164Z,72.43
2018-10-18T18:24:51.051Z,73.80
2018-10-18T18:27:20.085Z,74.87
2018-10-18T18:29:48.875Z,70.10
2018-10-18T18:32:19.162Z,73.27
2018-10-18T18:34:47.777Z,75.63
2018-10-18T18:37:18.213Z,72.73
2018-10-18T18:39:47.165Z,83.07
2018-10-18T18:42:16.090Z,69.13
2018-10-18T18:44:44.748Z,69.53
2018-10-18T18:47:14.475Z,74.10
2018-10-18T18:49:43.413Z,72.20
2018-10-18T18:52:13.825Z,62.37
2018-10-18T18:54:44.073Z,64.30
2018-10-18T18:57:19.576Z,71.50
2018-10-18T18:59:53.337Z,75.47
2018-10-18T19:02:29.018Z,68.83
2018-10-18T19:05:03.204Z,72.33
2018-10-18T19:07:32.473Z,70.80
2018-10-18T19:10:01.036Z,82.73
2018-10-18T19:12:34.237Z,73.73
2018-10-18T19:15:03.179Z,82.77
2018-10-18T19:17:36.475Z,80.63
2018-10-18T19:20:05.688Z,73.80
2018-10-18T19:22:39.761Z,77.67
2018-10-18T19:25:10.394Z,76.07
2018-10-18T19:27:41.033Z,80.27
2018-10-18T19:30:12.503Z,70.80
2018-10-18T19:32:41.206Z,75.30
2018-10-18T19:35:09.781Z,71.73
2018-10-18T19:37:38.379Z,90.77
2018-10-18T19:40:07.819Z,74.17
2018-10-18T19:42:36.388Z,79.57
2018-10-18T19:45:05.541Z,84.70
2018-10-18T19:47:34.109Z,76.80
2018-10-18T19:50:02.706Z,74.80
2018-10-18T19:52:31.376Z,77.03
2018-10-18T19:54:59.846Z,73.83
2018-10-18T19:57:28.533Z,74.50
2018-10-18T19:59:57.105Z,75.00
2018-10-18T20:02:26.017Z,65.43
2018-10-18T20:04:54.592Z,78.83
2018-10-18T20:07:23.224Z,66.63
2018-10-18T20:09:51.768Z,65.70
2018-10-18T20:12:20.367Z,72.50
2018-10-18T20:14:48.913Z,68.47
2018-10-18T20:17:17.480Z,74.97
2018-10-18T20:19:46.039Z,80.00
2018-10-18T20:22:14.629Z,65.67
2018-10-18T20:24:43.403Z,73.23
2018-10-18T20:27:12.156Z,72.17
2018-10-18T20:29:40.695Z,73.23
2018-10-18T20:32:09.336Z,65.17
2018-10-18T20:34:37.886Z,66.33
2018-10-18T20:37:06.876Z,68.53
2018-10-18T20:39:35.415Z,70.53
2018-10-18T20:42:04.012Z,71.63
2018-10-18T20:44:32.549Z,68.93
2018-10-18T20:47:01.124Z,68.00
2018-10-18T20:49:29.677Z,76.27
2018-10-18T20:51:58.249Z,77.77
2018-10-18T20:54:26.790Z,81.40
2018-10-18T20:56:55.413Z,83.53
2018-10-18T20:59:23.937Z,84.63
2018-10-18T21:01:52.517Z,83.00
2018-10-18T21:04:21.076Z,82.77
2018-10-18T21:06:49.639Z,80.57
2018-10-18T21:09:18.426Z,79.27
2018-10-18T21:11:47.018Z,77.80
2018-10-18T21:14:15.569Z,75.37
2018-10-18T21:16:44.205Z,77.37
2018-10-18T21:19:12.800Z,72.97
2018-10-18T21:21:41.406Z,77.43
2018-10-18T21:24:09.950Z,70.27
2018-10-18T21:26:38.493Z,79.40
2018-10-18T21:29:08.820Z,64.13
2018-10-18T21:31:38.102Z,72.87
2018-10-18T21:34:09.154Z,79.90
2018-10-18T21:36:38.501Z,78.20
2018-10-18T21:39:08.313Z,85.07
2018-10-18T21:41:38.430Z,76.10
2018-10-18T21:44:08.731Z,75.50
2018-10-18T21:46:38.976Z,88.70
2018-10-18T21:49:07.606Z,77.80
2018-10-18T21:51:37.728Z,78.50
2018-10-18T21:54:08.309Z,87.23
2018-10-18T21:56:42.914Z,75.40
2018-10-18T21:59:17.413Z,75.97
2018-10-18T22:01:52.250Z,72.83
2018-10-18T22:04:25.463Z,72.13
2018-10-18T22:06:57.287Z,68.07
2018-10-18T22:09:29.598Z,78.93
2018-10-18T22:12:03.331Z,72.30
2018-10-18T22:14:39.842Z,73.00
2018-10-18T22:17:08.506Z,68.23
2018-10-18T22:19:42.222Z,74.27
2018-10-18T22:22:16.313Z,68.33
2018-10-18T22:24:50.558Z,73.63
2018-10-18T22:27:26.803Z,66.70
2018-10-18T22:30:00.951Z,72.93
2018-10-18T22:32:29.665Z,69.67
2018-10-18T22:35:00.703Z,70.10
2018-10-18T22:37:34.443Z,61.57
2018-10-18T22:40:03.280Z,71.30
2018-10-18T22:42:37.210Z,54.57
2018-10-18T22:45:07.767Z,81.10
2018-10-18T22:47:41.418Z,71.73
2018-10-18T22:50:15.088Z,62.43
2018-10-18T22:52:49.030Z,59.83
2018-10-18T22:55:23.345Z,66.50
2018-10-18T22:57:57.025Z,66.10
2018-10-18T23:00:25.813Z,58.30
2018-10-18T23:02:54.369Z,59.67
2018-10-18T23:05:29.574Z,65.93
2018-10-18T23:07:58.121Z,71.80
2018-10-18T23:10:26.685Z,67.80
2018-10-18T23:12:55.209Z,57.90
2018-10-18T23:15:23.790Z,62.70
2018-10-18T23:17:52.336Z,58.30
2018-10-18T23:20:20.941Z,60.30
2018-10-18T23:22:49.499Z,62.07
2018-10-18T23:25:18.072Z,51.93
2018-10-18T23:27:46.621Z,64.93
2018-10-18T23:30:15.185Z,65.60
2018-10-18T23:32:43.725Z,79.10
2018-10-18T23:35:12.323Z,64.97
2018-10-18T23:37:40.848Z,85.80
2018-10-18T23:40:09.456Z,76.13
2018-10-18T23:42:38.005Z,54.27
2018-10-18T23:45:07.716Z,51.97
2018-10-18T23:47:36.272Z,57.53
2018-10-18T23:50:05.058Z,60.10
2018-10-18T23:52:33.596Z,58.27
2018-10-18T23:55:05.188Z,55.67
2018-10-18T23:57:34.863Z,50.67
